Time;durP1;ratioP1;P1;durP2;ratioP2;P2;SDS_P1;SDS_P2;PMS_P1;PMS_P2;Temp;Humidity;BMP_temperature;BMP_pressure;BME280_temperature;BME280_humidity;BME280_pressure;Samples;Min_cycle;Max_cycle;Signal;HPM_P1;HPM_P2
2021/03/29 00:00:33;;;;;;;3.85;1.40;;;12.30;61.30;;;;;;4961624;28;20161;-66
2021/03/29 00:03:00;;;;;;;9.45;2.22;;;12.30;61.60;;;;;;4965435;28;20034;-66
2021/03/29 00:05:29;;;;;;;5.30;1.52;;;12.30;61.50;;;;;;4968617;28;20142;-66
2021/03/29 00:08:16;;;;;;;3.90;1.48;;;12.30;61.70;;;;;;4972592;28;20157;-66
2021/03/29 00:10:45;;;;;;;4.55;1.85;;;12.30;61.60;;;;;;4975770;28;20258;-66
2021/03/29 00:13:13;;;;;;;4.35;1.38;;;12.30;62.10;;;;;;4963804;28;20057;-67
2021/03/29 00:15:44;;;;;;;2.20;1.20;;;12.30;62.80;;;;;;4962456;28;20076;-66
2021/03/29 00:18:12;;;;;;;6.45;1.70;;;12.30;63.00;;;;;;4972809;28;20680;-66
2021/03/29 00:20:41;;;;;;;5.13;1.60;;;12.30;62.60;;;;;;4968259;28;20034;-66
2021/03/29 00:23:07;;;;;;;2.47;1.40;;;12.30;63.20;;;;;;4966040;28;20034;-66
2021/03/29 00:25:35;;;;;;;4.90;1.85;;;12.30;62.70;;;;;;4962992;28;20047;-67
2021/03/29 00:28:02;;;;;;;4.20;1.25;;;12.40;62.00;;;;;;4975044;28;20562;-66
2021/03/29 00:30:31;;;;;;;5.13;1.58;;;12.40;61.70;;;;;;4977618;28;20514;-66
2021/03/29 00:32:57;;;;;;;5.10;1.38;;;12.30;61.90;;;;;;4969699;28;20042;-66
2021/03/29 00:35:25;;;;;;;3.58;1.35;;;12.30;61.70;;;;;;4968920;28;20038;-66
2021/03/29 00:37:54;;;;;;;6.60;2.03;;;12.30;61.40;;;;;;4973593;28;20785;-66
2021/03/29 00:40:21;;;;;;;5.88;1.60;;;12.30;62.20;;;;;;4963849;28;20054;-66
2021/03/29 00:42:56;;;;;;;4.63;1.52;;;12.30;61.90;;;;;;4978930;28;20034;-66
2021/03/29 00:45:21;;;;;;;7.47;2.10;;;12.30;61.70;;;;;;4976031;28;20038;-66
2021/03/29 00:47:48;;;;;;;4.80;1.52;;;12.30;61.80;;;;;;4972043;28;20518;-66
2021/03/29 00:50:20;;;;;;;4.07;1.40;;;12.30;61.70;;;;;;4976755;28;20149;-66
2021/03/29 00:52:47;;;;;;;4.00;1.23;;;12.20;61.20;;;;;;4975993;28;20038;-66
2021/03/29 00:55:13;;;;;;;6.38;1.85;;;12.30;61.50;;;;;;4975361;28;20034;-66
2021/03/29 00:57:40;;;;;;;7.53;1.90;;;12.20;61.90;;;;;;4961292;28;20118;-66
2021/03/29 01:00:20;;;;;;;3.55;1.83;;;12.20;62.70;;;;;;4962950;28;20049;-66
2021/03/29 01:02:46;;;;;;;7.15;1.90;;;12.20;62.10;;;;;;4965734;28;20040;-66
2021/03/29 01:05:17;;;;;;;5.45;1.58;;;12.20;62.10;;;;;;4968679;28;20251;-66
2021/03/29 01:07:46;;;;;;;6.32;1.60;;;12.10;62.20;;;;;;4971266;28;20031;-66
2021/03/29 01:10:12;;;;;;;6.22;1.67;;;12.10;62.10;;;;;;4969498;28;20035;-67
2021/03/29 01:12:40;;;;;;;5.57;1.63;;;12.10;62.40;;;;;;4960587;28;20058;-66
2021/03/29 01:15:08;;;;;;;4.35;1.42;;;12.10;62.70;;;;;;4962842;28;20117;-66
2021/03/29 01:17:36;;;;;;;4.57;1.73;;;12.10;62.70;;;;;;4972996;28;20039;-67
2021/03/29 01:20:02;;;;;;;6.13;1.50;;;12.20;63.20;;;;;;4985458;28;20073;-66
2021/03/29 01:22:41;;;;;;;4.32;1.45;;;12.10;62.20;;;;;;4972196;28;20562;-66
2021/03/29 01:25:32;;;;;;;5.07;1.70;;;12.10;62.60;;;;;;4975694;28;20141;-66
2021/03/29 01:28:07;;;;;;;4.20;1.85;;;12.20;62.30;;;;;;4957581;28;20135;-66
2021/03/29 01:30:36;;;;;;;7.13;1.48;;;12.10;62.60;;;;;;4973117;28;20038;-66
2021/03/29 01:33:04;;;;;;;5.53;1.40;;;12.20;62.70;;;;;;4972695;28;20042;-66
2021/03/29 01:35:33;;;;;;;7.65;1.88;;;12.20;62.40;;;;;;4969124;28;20143;-66
2021/03/29 01:38:00;;;;;;;5.28;2.00;;;12.10;62.40;;;;;;4966023;28;20037;-66
2021/03/29 01:40:27;;;;;;;5.40;2.22;;;12.20;62.10;;;;;;4993746;28;20050;-66
2021/03/29 01:42:55;;;;;;;6.97;1.48;;;12.20;62.20;;;;;;4964570;28;20042;-66
2021/03/29 01:45:23;;;;;;;5.30;1.40;;;12.10;62.60;;;;;;4961343;28;20489;-66
2021/03/29 01:47:49;;;;;;;8.88;2.67;;;12.10;62.90;;;;;;4964808;28;20042;-66
2021/03/29 01:50:18;;;;;;;6.90;2.17;;;12.20;62.90;;;;;;4968149;28;20034;-66
2021/03/29 01:52:44;;;;;;;6.07;2.00;;;12.20;62.60;;;;;;4971303;28;20618;-66
2021/03/29 01:55:11;;;;;;;7.57;1.83;;;12.20;62.00;;;;;;4975883;28;20053;-66
2021/03/29 01:57:37;;;;;;;7.38;1.80;;;12.20;62.10;;;;;;4976877;28;20066;-67
2021/03/29 02:00:12;;;;;;;5.10;1.52;;;12.20;62.70;;;;;;4976705;28;20751;-66
2021/03/29 02:02:41;;;;;;;7.55;1.50;;;12.20;63.20;;;;;;4965159;28;20654;-66
2021/03/29 02:05:15;;;;;;;5.68;1.70;;;12.20;62.90;;;;;;4968603;28;20042;-66
2021/03/29 02:07:42;;;;;;;5.25;1.60;;;12.20;63.10;;;;;;4976007;28;20050;-66
2021/03/29 02:10:17;;;;;;;5.80;2.05;;;12.20;62.90;;;;;;4975143;28;20077;-68
2021/03/29 02:12:44;;;;;;;11.68;1.75;;;12.10;63.40;;;;;;4962044;28;20574;-67
2021/03/29 02:15:12;;;;;;;6.32;2.10;;;12.20;63.70;;;;;;4961368;28;20063;-66
2021/03/29 02:17:40;;;;;;;9.52;1.98;;;12.10;63.70;;;;;;4974881;28;20041;-66
2021/03/29 02:20:17;;;;;;;8.63;1.92;;;12.10;63.10;;;;;;4971406;28;20497;-66
2021/03/29 02:22:50;;;;;;;4.43;2.13;;;12.10;63.40;;;;;;4971047;28;20129;-66
2021/03/29 02:25:22;;;;;;;5.15;1.63;;;12.00;63.50;;;;;;4963386;28;20042;-66
2021/03/29 02:27:50;;;;;;;5.45;1.73;;;12.00;63.90;;;;;;4960222;28;20105;-66
2021/03/29 02:30:20;;;;;;;3.85;1.42;;;11.90;64.10;;;;;;4959929;28;20093;-66
2021/03/29 02:32:48;;;;;;;6.05;1.90;;;11.90;64.70;;;;;;4969455;28;20038;-66
2021/03/29 02:35:15;;;;;;;5.15;1.73;;;11.90;65.00;;;;;;4966058;28;20396;-66
2021/03/29 02:37:49;;;;;;;8.63;1.95;;;11.90;64.80;;;;;;4968354;28;20038;-66
2021/03/29 02:40:17;;;;;;;3.30;1.23;;;11.80;64.50;;;;;;4972571;28;20038;-66
2021/03/29 02:42:45;;;;;;;3.28;1.30;;;11.90;64.80;;;;;;4975683;28;20073;-66
2021/03/29 02:45:14;;;;;;;4.40;1.63;;;11.80;65.60;;;;;;4975091;28;20048;-66
2021/03/29 02:47:42;;;;;;;6.72;1.63;;;11.80;65.20;;;;;;4972270;28;20031;-66
2021/03/29 02:50:11;;;;;;;6.68;1.58;;;11.80;65.80;;;;;;4970685;28;20475;-66
2021/03/29 02:52:38;;;;;;;4.78;1.75;;;11.70;66.20;;;;;;4966240;28;20511;-67
2021/03/29 02:55:08;;;;;;;3.47;1.20;;;11.70;65.90;;;;;;4963217;28;20031;-66
2021/03/29 02:57:40;;;;;;;4.15;1.38;;;11.70;66.60;;;;;;4991508;28;20081;-67
2021/03/29 03:00:18;;;;;;;7.57;1.90;;;11.70;66.70;;;;;;4959960;28;20038;-66
2021/03/29 03:02:45;;;;;;;8.00;1.88;;;11.80;66.20;;;;;;4963859;28;20022;-66
2021/03/29 03:05:13;;;;;;;7.70;1.90;;;11.80;65.40;;;;;;4966029;28;20026;-66
2021/03/29 03:07:39;;;;;;;5.43;2.17;;;11.80;65.60;;;;;;4970044;28;20545;-66
2021/03/29 03:10:10;;;;;;;4.60;1.65;;;11.80;65.90;;;;;;4972590;28;20137;-66
2021/03/29 03:12:40;;;;;;;6.13;1.85;;;11.80;65.50;;;;;;4975760;28;20516;-66
2021/03/29 03:15:12;;;;;;;3.67;1.70;;;11.80;65.60;;;;;;4967147;28;20046;-66
2021/03/29 03:17:38;;;;;;;6.22;1.50;;;11.80;65.80;;;;;;4962414;28;20023;-67
2021/03/29 03:20:07;;;;;;;2.83;1.60;;;11.70;65.80;;;;;;4966135;28;20529;-67
2021/03/29 03:22:33;;;;;;;6.70;1.77;;;11.80;66.10;;;;;;4966081;28;20140;-67
2021/03/29 03:24:59;;;;;;;5.05;1.67;;;11.70;66.20;;;;;;4971725;28;20356;-67
2021/03/29 03:27:25;;;;;;;6.55;1.92;;;11.70;65.30;;;;;;4974240;28;20096;-66
2021/03/29 03:29:51;;;;;;;8.20;2.22;;;11.70;65.40;;;;;;4976455;28;20262;-67
2021/03/29 03:32:17;;;;;;;6.35;1.70;;;11.70;65.20;;;;;;4965986;28;20034;-66
2021/03/29 03:34:44;;;;;;;5.32;1.50;;;11.70;64.50;;;;;;4964529;28;20046;-66
2021/03/29 03:37:19;;;;;;;6.85;1.83;;;11.70;65.30;;;;;;4968006;28;20041;-67
2021/03/29 03:39:48;;;;;;;2.92;1.35;;;11.70;65.70;;;;;;4970970;28;20042;-67
2021/03/29 03:42:16;;;;;;;7.82;1.70;;;11.70;65.50;;;;;;4964941;28;20800;-66
2021/03/29 03:44:43;;;;;;;3.10;1.15;;;11.70;65.90;;;;;;4975797;28;20042;-66
2021/03/29 03:47:10;;;;;;;4.65;1.40;;;11.70;65.70;;;;;;4973386;28;20053;-66
2021/03/29 03:49:39;;;;;;;6.68;1.80;;;11.60;65.90;;;;;;4971872;28;20042;-66
2021/03/29 03:52:07;;;;;;;5.68;2.00;;;11.50;65.90;;;;;;4993144;28;20639;-66
2021/03/29 03:54:34;;;;;;;6.80;1.90;;;11.50;66.00;;;;;;4970960;28;20068;-66
2021/03/29 03:57:00;;;;;;;6.80;1.67;;;11.40;66.00;;;;;;4977424;28;20076;-66
2021/03/29 03:59:26;;;;;;;7.43;1.90;;;11.30;66.60;;;;;;4973506;28;20501;-66
2021/03/29 04:02:06;;;;;;;5.07;1.90;;;11.30;65.90;;;;;;4979241;28;20042;-66
2021/03/29 04:04:33;;;;;;;4.38;1.42;;;11.40;65.80;;;;;;4968117;28;20551;-66
2021/03/29 04:06:59;;;;;;;7.05;1.52;;;11.40;64.80;;;;;;4972297;28;20070;-66
2021/03/29 04:09:37;;;;;;;4.38;1.52;;;11.40;65.40;;;;;;4972703;28;20062;-66
2021/03/29 04:12:07;;;;;;;8.95;2.20;;;11.40;66.00;;;;;;4964391;28;20043;-67
2021/03/29 04:14:33;;;;;;;3.72;1.50;;;11.50;65.80;;;;;;4961279;28;20663;-66
2021/03/29 04:16:59;;;;;;;6.22;1.80;;;11.50;66.00;;;;;;4970398;28;20045;-67
2021/03/29 04:19:25;;;;;;;7.65;2.08;;;11.50;65.80;;;;;;4974128;28;20841;-67
2021/03/29 04:21:50;;;;;;;4.55;1.88;;;11.50;65.70;;;;;;4974364;28;20459;-66
2021/03/29 04:24:17;;;;;;;5.85;2.10;;;11.60;64.90;;;;;;4972962;28;20574;-66
2021/03/29 04:26:43;;;;;;;8.15;1.80;;;11.60;64.50;;;;;;4976031;28;20042;-66
2021/03/29 04:29:09;;;;;;;4.13;1.40;;;11.60;64.50;;;;;;4980289;28;20813;-66
2021/03/29 04:31:35;;;;;;;3.90;1.98;;;11.50;64.10;;;;;;4979134;28;20113;-66
2021/03/29 04:34:01;;;;;;;5.82;2.45;;;11.50;65.10;;;;;;4976287;28;20081;-66
2021/03/29 04:36:26;;;;;;;4.93;1.65;;;11.50;65.40;;;;;;4974309;28;20022;-67
2021/03/29 04:38:52;;;;;;;4.35;1.40;;;11.60;65.20;;;;;;4971957;28;20022;-66
2021/03/29 04:41:18;;;;;;;6.13;2.08;;;11.60;64.60;;;;;;4975931;28;20030;-66
2021/03/29 04:43:43;;;;;;;5.13;1.70;;;11.60;63.90;;;;;;4978664;28;20054;-67
2021/03/29 04:46:09;;;;;;;5.43;1.48;;;11.60;64.30;;;;;;4978222;28;20875;-66
2021/03/29 04:48:35;;;;;;;3.33;1.42;;;11.60;64.50;;;;;;4973665;28;20030;-66
2021/03/29 04:51:01;;;;;;;6.47;2.13;;;11.60;64.80;;;;;;4969342;28;20035;-66
2021/03/29 04:53:26;;;;;;;5.68;1.60;;;11.60;64.20;;;;;;4971200;28;20026;-66
2021/03/29 04:55:52;;;;;;;6.40;2.00;;;11.60;63.60;;;;;;4993713;28;20031;-65
2021/03/29 04:58:17;;;;;;;8.68;2.38;;;11.60;64.00;;;;;;4972128;28;20027;-66
2021/03/29 05:00:43;;;;;;;6.63;1.63;;;11.60;64.60;;;;;;4971728;28;20791;-66
2021/03/29 05:03:09;;;;;;;5.78;1.75;;;11.70;62.70;;;;;;4975892;28;20034;-66
2021/03/29 05:05:34;;;;;;;9.32;2.08;;;11.60;63.70;;;;;;4973118;28;20786;-66
2021/03/29 05:08:00;;;;;;;6.47;1.70;;;11.70;63.40;;;;;;4976019;28;20125;-66
2021/03/29 05:10:26;;;;;;;5.93;1.77;;;11.60;63.60;;;;;;4971576;28;20049;-62
2021/03/29 05:12:51;;;;;;;5.85;1.92;;;11.60;64.30;;;;;;4964296;28;20041;-62
2021/03/29 05:15:17;;;;;;;6.50;1.63;;;11.60;64.40;;;;;;4958954;28;20209;-62
2021/03/29 05:17:43;;;;;;;5.82;2.40;;;11.60;64.00;;;;;;4975700;28;20044;-62
2021/03/29 05:20:10;;;;;;;4.55;1.50;;;11.70;63.00;;;;;;4965186;28;20077;-62
2021/03/29 05:22:36;;;;;;;5.13;2.05;;;11.70;63.80;;;;;;4969178;28;20034;-60
2021/03/29 05:25:03;;;;;;;7.88;2.15;;;11.80;62.80;;;;;;4964318;28;20030;-63
2021/03/29 05:27:28;;;;;;;12.18;2.30;;;11.70;63.00;;;;;;4978243;28;20049;-61
2021/03/29 05:29:54;;;;;;;6.57;2.05;;;11.70;63.60;;;;;;4967329;28;20035;-62
2021/03/29 05:32:24;;;;;;;5.57;1.85;;;11.80;63.40;;;;;;4974104;28;20039;-62
2021/03/29 05:34:54;;;;;;;6.72;2.00;;;11.80;63.10;;;;;;4968736;28;20511;-60
2021/03/29 05:37:20;;;;;;;9.77;3.25;;;11.80;62.90;;;;;;4973393;28;20090;-61
2021/03/29 05:39:52;;;;;;;4.78;1.70;;;11.80;63.30;;;;;;4969279;28;20804;-61
2021/03/29 05:42:19;;;;;;;9.20;2.53;;;11.80;62.00;;;;;;4974375;28;20474;-62
2021/03/29 05:44:45;;;;;;;6.60;2.80;;;11.80;63.00;;;;;;5009796;28;20046;-62
2021/03/29 05:47:12;;;;;;;5.75;2.05;;;11.80;63.00;;;;;;4970545;28;20038;-61
2021/03/29 05:49:38;;;;;;;7.18;2.25;;;11.80;62.70;;;;;;4965256;28;20513;-62
2021/03/29 05:52:04;;;;;;;10.05;2.42;;;11.80;62.80;;;;;;4973101;28;20039;-62
2021/03/29 05:54:31;;;;;;;7.88;1.80;;;11.90;62.80;;;;;;4970772;28;20041;-62
2021/03/29 05:56:57;;;;;;;5.47;2.00;;;11.80;61.80;;;;;;4971817;28;20042;-61
2021/03/29 05:59:27;;;;;;;10.05;1.90;;;12.00;61.80;;;;;;4981291;28;20526;-62
2021/03/29 06:01:56;;;;;;;7.38;2.08;;;12.00;62.10;;;;;;4981832;28;20031;-62
2021/03/29 06:04:46;;;;;;;9.35;2.15;;;12.10;61.60;;;;;;4977771;28;20030;-61
2021/03/29 06:07:28;;;;;;;4.97;1.95;;;12.10;62.00;;;;;;4972737;28;20046;-62
2021/03/29 06:09:56;;;;;;;8.95;1.88;;;12.20;60.90;;;;;;4976214;28;20053;-62
2021/03/29 06:12:23;;;;;;;6.40;2.00;;;12.30;60.80;;;;;;4969904;28;20145;-62
2021/03/29 06:15:00;;;;;;;2.78;1.45;;;12.40;60.70;;;;;;4994471;28;20092;-61
2021/03/29 06:17:26;;;;;;;7.18;1.90;;;12.50;60.30;;;;;;4969509;28;20034;-62
2021/03/29 06:19:57;;;;;;;6.95;2.28;;;12.50;60.40;;;;;;4978262;28;20089;-62
2021/03/29 06:22:26;;;;;;;11.50;2.72;;;12.70;59.90;;;;;;4974832;28;20062;-62
2021/03/29 06:25:10;;;;;;;9.23;3.00;;;12.70;61.10;;;;;;4978871;28;20035;-62
2021/03/29 06:27:46;;;;;;;6.20;1.75;;;12.70;59.00;;;;;;4978335;28;20049;-61
2021/03/29 06:32:53;;;;;;;4.93;1.60;;;12.80;58.90;;;;;;4986404;28;20902;-57
2021/03/29 06:35:21;;;;;;;6.75;1.70;;;12.80;59.60;;;;;;4996609;28;20041;-59
2021/03/29 06:37:47;;;;;;;8.57;2.42;;;12.90;59.70;;;;;;4995220;28;20021;-57
2021/03/29 06:40:13;;;;;;;8.75;2.50;;;12.90;59.50;;;;;;5000437;28;20030;-59
2021/03/29 06:42:39;;;;;;;9.20;2.10;;;13.00;59.10;;;;;;4997099;28;20051;-61
2021/03/29 06:45:15;;;;;;;11.15;2.20;;;13.00;58.80;;;;;;4987972;28;20022;-58
2021/03/29 06:47:42;;;;;;;3.88;1.88;;;13.50;57.80;;;;;;4992285;28;20564;-59
2021/03/29 06:50:26;;;;;;;4.60;2.30;;;13.80;57.90;;;;;;4992770;28;20041;-56
2021/03/29 06:52:51;;;;;;;9.38;2.00;;;14.30;56.60;;;;;;4990577;28;20037;-56
2021/03/29 06:55:23;;;;;;;6.00;2.10;;;14.80;55.10;;;;;;4989384;28;20909;-57
2021/03/29 06:58:23;;;;;;;5.88;2.08;;;15.10;53.90;;;;;;4994481;28;20516;-56
2021/03/29 07:00:54;;;;;;;6.45;2.25;;;15.50;52.50;;;;;;4994515;28;20049;-57
2021/03/29 07:03:19;;;;;;;5.07;1.60;;;15.50;52.50;;;;;;4998714;28;20038;-57
2021/03/29 07:05:48;;;;;;;8.57;2.22;;;15.50;52.10;;;;;;4990305;28;20771;-57
2021/03/29 07:08:14;;;;;;;6.03;1.83;;;15.50;51.60;;;;;;4989718;28;20038;-57
2021/03/29 07:10:40;;;;;;;6.18;1.90;;;15.30;51.90;;;;;;4995538;28;20061;-57
2021/03/29 07:13:08;;;;;;;6.50;2.20;;;15.10;53.40;;;;;;4992130;28;20061;-57
2021/03/29 07:15:38;;;;;;;3.83;1.83;;;15.00;52.60;;;;;;4993374;28;20050;-57
2021/03/29 07:18:04;;;;;;;8.43;2.17;;;14.90;53.30;;;;;;4996014;28;20085;-58
2021/03/29 07:20:33;;;;;;;12.07;4.97;;;14.80;54.00;;;;;;4993016;28;20084;-58
2021/03/29 07:22:58;;;;;;;7.55;2.13;;;14.60;54.40;;;;;;5000186;28;20034;-58
2021/03/29 07:25:32;;;;;;;9.73;2.35;;;14.70;54.20;;;;;;4994377;28;20039;-58
2021/03/29 07:28:00;;;;;;;10.52;2.50;;;14.60;54.60;;;;;;4987340;28;20045;-58
2021/03/29 07:30:47;;;;;;;7.20;2.08;;;14.60;53.90;;;;;;4999845;28;20044;-59
2021/03/29 07:33:15;;;;;;;8.25;2.10;;;14.60;55.00;;;;;;4992595;28;20117;-58
2021/03/29 07:35:44;;;;;;;7.10;2.00;;;14.50;54.70;;;;;;4993303;28;20137;-58
2021/03/29 07:38:10;;;;;;;8.63;1.90;;;14.50;55.30;;;;;;5001894;28;20397;-58
2021/03/29 07:40:39;;;;;;;11.95;2.45;;;14.60;55.10;;;;;;4991198;28;20069;-59
2021/03/29 07:43:21;;;;;;;8.73;2.13;;;14.60;55.40;;;;;;4998156;28;20044;-58
2021/03/29 07:46:04;;;;;;;12.57;2.65;;;14.70;54.80;;;;;;4986578;28;20038;-58
2021/03/29 07:48:38;;;;;;;10.82;2.30;;;14.60;54.80;;;;;;4992875;28;20076;-58
2021/03/29 07:51:09;;;;;;;7.60;2.38;;;14.50;54.80;;;;;;4996376;28;20038;-58
2021/03/29 07:53:39;;;;;;;6.55;2.15;;;14.60;55.30;;;;;;4998093;28;20081;-58
2021/03/29 07:56:05;;;;;;;7.75;2.08;;;14.70;55.10;;;;;;4984857;28;20038;-58
2021/03/29 07:58:43;;;;;;;11.75;2.70;;;14.80;54.90;;;;;;4993516;28;20026;-58
2021/03/29 08:01:09;;;;;;;6.97;2.00;;;14.90;54.80;;;;;;4991507;28;20033;-58
2021/03/29 08:03:38;;;;;;;6.07;1.92;;;15.00;54.30;;;;;;4987528;28;20128;-59
2021/03/29 08:06:04;;;;;;;4.40;1.77;;;14.90;54.80;;;;;;4989249;28;20056;-58
2021/03/29 08:08:35;;;;;;;7.28;2.30;;;14.90;54.30;;;;;;4999560;28;20079;-58
2021/03/29 08:11:17;;;;;;;9.20;2.40;;;14.90;54.80;;;;;;4991654;28;20141;-58
2021/03/29 08:13:58;;;;;;;6.60;1.98;;;15.00;54.00;;;;;;4996790;28;20393;-58
2021/03/29 08:16:24;;;;;;;7.07;1.85;;;14.90;54.40;;;;;;4992625;28;20087;-58
2021/03/29 08:19:08;;;;;;;6.43;2.67;;;14.80;55.20;;;;;;4995156;28;20049;-58
2021/03/29 08:21:46;;;;;;;6.72;2.20;;;14.80;56.40;;;;;;4985916;28;20030;-57
2021/03/29 08:24:29;;;;;;;6.32;1.85;;;15.00;55.80;;;;;;4993587;28;20034;-58
2021/03/29 08:26:57;;;;;;;8.23;2.47;;;15.20;56.50;;;;;;5007305;28;20121;-57
2021/03/29 08:29:37;;;;;;;6.15;2.13;;;15.20;55.00;;;;;;4990201;28;20030;-58
2021/03/29 08:32:10;;;;;;;7.07;1.90;;;15.30;56.00;;;;;;4995079;28;20045;-60
2021/03/29 08:34:54;;;;;;;15.30;2.40;;;15.20;55.30;;;;;;4990363;28;20128;-60
2021/03/29 08:37:37;;;;;;;8.38;2.10;;;15.30;56.80;;;;;;4995743;28;20038;-58
2021/03/29 08:40:26;;;;;;;5.68;1.90;;;15.30;54.70;;;;;;4995258;28;20808;-58
2021/03/29 08:42:55;;;;;;;12.88;2.25;;;15.40;54.20;;;;;;4998569;28;20116;-58
2021/03/29 08:45:25;;;;;;;9.10;2.38;;;15.50;53.90;;;;;;5000995;28;20107;-58
2021/03/29 08:47:56;;;;;;;6.63;1.58;;;15.50;53.30;;;;;;4999058;28;20038;-59
2021/03/29 08:50:28;;;;;;;5.70;1.67;;;15.50;54.60;;;;;;4995925;28;20151;-59
2021/03/29 08:53:00;;;;;;;5.20;2.10;;;15.60;54.20;;;;;;4996716;28;20047;-58
2021/03/29 08:55:29;;;;;;;8.52;2.15;;;15.80;53.60;;;;;;4992163;28;20034;-58
2021/03/29 08:57:56;;;;;;;6.65;2.20;;;16.10;52.30;;;;;;4992017;28;20023;-58
2021/03/29 09:00:27;;;;;;;8.77;3.40;;;16.40;51.60;;;;;;4998720;28;20394;-60
2021/03/29 09:02:53;;;;;;;10.40;2.10;;;16.50;51.10;;;;;;4996760;28;20048;-59
2021/03/29 09:05:22;;;;;;;9.95;1.90;;;16.50;50.80;;;;;;4997225;28;20030;-59
2021/03/29 09:07:51;;;;;;;8.95;1.60;;;16.40;51.00;;;;;;4991618;28;20030;-59
2021/03/29 09:10:21;;;;;;;6.38;2.25;;;16.40;50.90;;;;;;4994686;28;20045;-58
2021/03/29 09:12:57;;;;;;;7.25;1.80;;;16.30;50.20;;;;;;4996488;28;20053;-59
2021/03/29 09:15:25;;;;;;;6.22;2.20;;;16.20;50.40;;;;;;5001595;28;20044;-59
2021/03/29 09:18:01;;;;;;;6.40;1.48;;;16.40;51.00;;;;;;5001146;28;20049;-58
2021/03/29 09:20:37;;;;;;;10.23;2.10;;;16.40;50.70;;;;;;4995503;28;20022;-58
2021/03/29 09:23:03;;;;;;;5.97;1.88;;;16.60;49.50;;;;;;4995244;28;20083;-59
2021/03/29 09:25:38;;;;;;;6.10;1.60;;;16.70;48.80;;;;;;4990852;28;20041;-58
2021/03/29 09:28:11;;;;;;;6.65;1.70;;;16.70;49.10;;;;;;4994576;28;20696;-59
2021/03/29 09:30:37;;;;;;;7.60;2.10;;;16.70;49.10;;;;;;4994439;28;20050;-58
2021/03/29 09:33:03;;;;;;;7.22;1.80;;;16.60;48.70;;;;;;4993564;28;20676;-60
2021/03/29 09:35:29;;;;;;;7.65;1.75;;;16.70;49.10;;;;;;4993108;28;20502;-59
2021/03/29 09:37:55;;;;;;;9.98;1.60;;;16.70;48.70;;;;;;4995534;28;20073;-59
2021/03/29 09:40:20;;;;;;;7.32;1.77;;;16.60;48.80;;;;;;4995946;28;20034;-59
2021/03/29 09:42:48;;;;;;;15.23;2.35;;;16.50;49.70;;;;;;4993130;28;20045;-59
2021/03/29 09:45:26;;;;;;;10.98;2.05;;;16.60;49.20;;;;;;4998569;28;20041;-59
2021/03/29 09:48:09;;;;;;;9.52;2.00;;;16.70;49.60;;;;;;4991285;28;20501;-58
2021/03/29 09:50:38;;;;;;;8.32;1.83;;;16.90;49.30;;;;;;4998725;28;20104;-59
2021/03/29 09:53:08;;;;;;;8.27;1.60;;;16.90;48.90;;;;;;4996505;28;20023;-58
2021/03/29 09:55:51;;;;;;;4.90;1.63;;;16.90;48.10;;;;;;4992251;28;20037;-59
2021/03/29 09:58:36;;;;;;;6.53;1.80;;;16.90;49.60;;;;;;4992519;28;20042;-58
2021/03/29 10:01:20;;;;;;;6.68;1.75;;;17.00;48.10;;;;;;4990809;28;20037;-59
2021/03/29 10:03:54;;;;;;;11.85;3.65;;;17.10;48.80;;;;;;4995281;28;20103;-59
2021/03/29 10:06:21;;;;;;;7.13;1.77;;;17.30;49.30;;;;;;4992604;28;20033;-58
2021/03/29 10:08:58;;;;;;;6.45;2.20;;;17.40;48.70;;;;;;4992317;28;20044;-59
2021/03/29 10:11:25;;;;;;;9.63;2.53;;;17.40;47.50;;;;;;4996771;28;20038;-59
2021/03/29 10:14:04;;;;;;;5.30;2.08;;;17.60;48.30;;;;;;4992869;28;20109;-58
2021/03/29 10:16:30;;;;;;;5.63;1.67;;;17.70;48.80;;;;;;4996317;28;20159;-59
2021/03/29 10:19:08;;;;;;;7.07;1.50;;;17.50;46.80;;;;;;4994011;28;20573;-58
2021/03/29 10:21:54;;;;;;;10.55;2.03;;;17.20;46.80;;;;;;4993888;28;20033;-58
2021/03/29 10:24:20;;;;;;;6.68;1.92;;;17.10;47.20;;;;;;4995982;28;20141;-58
2021/03/29 10:27:00;;;;;;;7.38;1.80;;;17.10;47.50;;;;;;4997519;28;20030;-58
2021/03/29 10:29:40;;;;;;;10.43;1.90;;;17.00;47.80;;;;;;4995766;28;20112;-58
2021/03/29 10:32:18;;;;;;;7.03;1.40;;;17.10;48.30;;;;;;4989308;28;20049;-58
2021/03/29 10:34:46;;;;;;;5.63;1.85;;;17.10;48.60;;;;;;4999526;28;20064;-58
2021/03/29 10:37:24;;;;;;;7.00;1.98;;;17.00;48.20;;;;;;4993461;28;20041;-59
2021/03/29 10:39:51;;;;;;;6.72;1.48;;;16.90;47.80;;;;;;5007540;28;20034;-58
2021/03/29 10:42:18;;;;;;;5.53;1.45;;;16.80;47.70;;;;;;4992095;28;20143;-59
2021/03/29 10:44:44;;;;;;;6.88;1.60;;;16.60;47.90;;;;;;4995501;28;20664;-58
2021/03/29 10:47:10;;;;;;;5.82;1.25;;;16.60;48.70;;;;;;4994782;28;20041;-59
2021/03/29 10:49:36;;;;;;;10.23;1.90;;;16.50;49.80;;;;;;4995578;28;20037;-59
2021/03/29 10:52:03;;;;;;;7.28;1.95;;;16.50;49.80;;;;;;4997683;28;20032;-64
2021/03/29 10:54:29;;;;;;;6.35;1.58;;;16.60;48.70;;;;;;4997489;28;20030;-63
2021/03/29 10:56:54;;;;;;;5.40;1.50;;;16.60;48.50;;;;;;4994693;28;20151;-64
2021/03/29 10:59:20;;;;;;;5.47;1.70;;;16.70;48.80;;;;;;4991015;28;20044;-64
2021/03/29 11:01:46;;;;;;;5.80;1.73;;;16.80;48.70;;;;;;4997054;28;20026;-64
2021/03/29 11:04:12;;;;;;;6.80;1.23;;;16.90;47.90;;;;;;4991062;28;20030;-64
2021/03/29 11:06:39;;;;;;;6.45;1.90;;;17.00;48.30;;;;;;4993864;28;20045;-64
2021/03/29 11:09:06;;;;;;;4.07;1.45;;;17.00;48.30;;;;;;4996193;28;20069;-64
2021/03/29 11:11:32;;;;;;;7.63;2.13;;;17.00;47.70;;;;;;4993176;28;20730;-65
2021/03/29 11:13:58;;;;;;;7.75;2.13;;;17.10;47.80;;;;;;4994171;28;20034;-64
2021/03/29 11:16:24;;;;;;;8.43;1.98;;;17.10;47.30;;;;;;4992873;28;20035;-59
2021/03/29 11:18:50;;;;;;;7.00;1.52;;;17.20;47.20;;;;;;4991327;28;20838;-59
2021/03/29 11:21:16;;;;;;;11.52;1.77;;;17.30;47.00;;;;;;4991572;28;20026;-59
2021/03/29 11:23:42;;;;;;;7.50;2.47;;;17.40;46.90;;;;;;4990968;28;20042;-59
2021/03/29 11:26:08;;;;;;;6.75;1.58;;;17.50;47.90;;;;;;4987431;28;20034;-58
2021/03/29 11:28:34;;;;;;;6.35;1.60;;;17.80;46.10;;;;;;4992229;28;20559;-59
2021/03/29 11:31:00;;;;;;;5.30;1.83;;;17.70;45.10;;;;;;4990839;28;20038;-59
2021/03/29 11:33:26;;;;;;;7.18;1.77;;;17.70;45.50;;;;;;4990930;28;20400;-59
2021/03/29 11:35:52;;;;;;;7.85;2.22;;;17.90;45.10;;;;;;4987836;28;20044;-59
2021/03/29 11:38:17;;;;;;;7.13;1.80;;;18.00;45.60;;;;;;4991379;28;20034;-59
2021/03/29 11:40:43;;;;;;;7.90;2.08;;;18.30;46.20;;;;;;4995489;28;20073;-59
2021/03/29 11:43:09;;;;;;;4.22;1.80;;;18.40;44.60;;;;;;4992434;28;20030;-59
2021/03/29 11:45:35;;;;;;;9.93;2.13;;;18.50;46.30;;;;;;4991511;28;20120;-59
2021/03/29 11:48:01;;;;;;;7.93;1.90;;;18.80;45.80;;;;;;4988598;28;20101;-59
2021/03/29 11:50:26;;;;;;;8.73;2.20;;;18.80;44.50;;;;;;4993232;28;20026;-59
2021/03/29 11:52:52;;;;;;;9.18;2.08;;;18.70;44.80;;;;;;4990996;28;20371;-59
2021/03/29 11:55:18;;;;;;;9.07;2.40;;;18.60;44.70;;;;;;4990371;28;20084;-59
2021/03/29 11:57:45;;;;;;;6.18;2.13;;;18.50;45.40;;;;;;4992390;28;20037;-59
2021/03/29 12:00:26;;;;;;;8.27;2.10;;;18.40;46.60;;;;;;4981858;28;20564;-59
2021/03/29 12:05:51;;;;;;;6.60;2.15;;;18.40;46.10;;;;;;4983574;28;20824;-59
2021/03/29 12:13:34;;;;;;;8.05;2.00;;;18.50;45.60;;;;;;4994302;28;20148;-59
2021/03/29 12:16:02;;;;;;;6.18;1.83;;;18.60;45.90;;;;;;4992743;28;20029;-59
2021/03/29 12:18:34;;;;;;;7.32;2.17;;;18.70;46.60;;;;;;4994031;28;20089;-59
2021/03/29 12:21:01;;;;;;;10.48;2.75;;;18.80;46.10;;;;;;4998189;28;20041;-60
2021/03/29 12:23:28;;;;;;;6.88;2.25;;;18.90;45.50;;;;;;4993446;28;20091;-59
2021/03/29 12:25:56;;;;;;;11.15;2.47;;;18.90;46.20;;;;;;4997041;28;20045;-59
2021/03/29 12:28:22;;;;;;;7.55;2.35;;;19.10;46.80;;;;;;4994601;28;20176;-59
2021/03/29 12:30:48;;;;;;;6.93;2.35;;;19.10;45.40;;;;;;4991708;28;20741;-60
2021/03/29 12:33:15;;;;;;;12.80;2.00;;;19.20;46.20;;;;;;4989758;28;20033;-59
2021/03/29 12:35:41;;;;;;;4.68;2.00;;;19.20;47.20;;;;;;4993202;28;20708;-60
2021/03/29 12:38:08;;;;;;;8.68;2.70;;;19.30;46.50;;;;;;4999137;28;20035;-60
2021/03/29 12:40:37;;;;;;;8.95;2.42;;;19.30;47.00;;;;;;4984006;28;20108;-59
2021/03/29 12:43:09;;;;;;;5.65;2.20;;;19.20;45.10;;;;;;4990110;28;20038;-59
2021/03/29 12:45:35;;;;;;;8.30;2.40;;;19.20;46.70;;;;;;4999749;28;20038;-59
2021/03/29 12:48:12;;;;;;;7.55;2.15;;;19.40;47.60;;;;;;4993127;28;20465;-59
2021/03/29 12:50:38;;;;;;;6.68;2.20;;;19.50;46.60;;;;;;4993677;28;20026;-59
2021/03/29 12:53:04;;;;;;;11.77;2.65;;;19.50;45.60;;;;;;5005283;28;20111;-60
2021/03/29 12:55:31;;;;;;;7.55;2.72;;;19.40;44.90;;;;;;4987872;28;20132;-59
2021/03/29 12:57:58;;;;;;;6.68;2.47;;;19.30;45.30;;;;;;4995397;28;20045;-59
2021/03/29 13:00:29;;;;;;;12.98;4.72;;;19.40;46.80;;;;;;4994447;28;20038;-59
2021/03/29 13:02:58;;;;;;;11.85;2.72;;;19.40;46.30;;;;;;4994177;28;20041;-59
2021/03/29 13:05:36;;;;;;;6.97;2.28;;;19.50;46.10;;;;;;4993568;28;20038;-59
2021/03/29 13:08:10;;;;;;;4.85;2.22;;;19.50;46.30;;;;;;4991792;28;20030;-59